This is the latest recevied weather packets stored in our database for station/object OE1HTB-13. If no packets are shown the sender has not sent any weather packets the latest 10 day(s).
| Time | Temp. | Humidity | Pressure | Rain* | Wind** | Luminosity | Snow |
|---|---|---|---|---|---|---|---|
| 1777446970 | 10.56° C | 44% | 1023.1 hPa | 0 mm | - | 536 W/m² | - |
| 1777446076 | 10° C | 42% | 1023.1 hPa | 0 mm | - | 497 W/m² | - |
| 1777445174 | 10° C | 43% | 1023 hPa | 0 mm | - | 452 W/m² | - |
| 1777444274 | 8.89° C | 43% | 1023 hPa | 0 mm | - | 274 W/m² | - |
| 1777443374 | 8.33° C | 46% | 1022.8 hPa | 0 mm | - | 362 W/m² | - |
| 1777442474 | 7.78° C | 47% | 1022.7 hPa | 0 mm | - | 76 W/m² | - |
| 1777441574 | 7.22° C | 48% | 1022.8 hPa | 0 mm | - | 69 W/m² | - |
| 1777440675 | 6.67° C | 49% | 1022.8 hPa | 0 mm | - | 232 W/m² | - |
| 1777439774 | 6.11° C | 53% | 1022.7 hPa | 0 mm | - | 116 W/m² | - |
| 1777438874 | 5.56° C | 55% | 1022.5 hPa | 0 mm | - | 148 W/m² | - |
| 1777437974 | 4.44° C | 57% | 1022.5 hPa | 0 mm | - | 46 W/m² | - |
| 1777437073 | 3.89° C | 58% | 1022.4 hPa | 0 mm | - | 33 W/m² | - |
| 1777436173 | 3.89° C | 59% | 1022.1 hPa | 0 mm | - | 18 W/m² | - |
| 1777435273 | 3.89° C | 58% | 1022 hPa | 0 mm | - | 11 W/m² | - |
| 1777434373 | 4.44° C | 56% | 1021.8 hPa | 0 mm | - | 5 W/m² | - |
| 1777433473 | 4.44° C | 56% | 1021.8 hPa | 0 mm | - | 0 W/m² | - |
| 1777432573 | 4.44° C | 58% | 1021.7 hPa | 0 mm | - | 0 W/m² | - |
| 1777431673 | 4.44° C | 58% | 1021.7 hPa | 0 mm | - | 0 W/m² | - |
| 1777430773 | 5° C | 54% | 1021.5 hPa | 0 mm | - | 0 W/m² | - |
| 1777429873 | 5° C | 54% | 1021.5 hPa | 0 mm | - | 0 W/m² | - |
| 1777428973 | 5° C | 56% | 1021.5 hPa | 0 mm | - | 0 W/m² | - |
| 1777428072 | 5° C | 55% | 1021.4 hPa | 0 mm | - | 0 W/m² | - |
| 1777427172 | 5.56° C | 53% | 1021.3 hPa | 0 mm | - | 0 W/m² | - |
* Rain latest hour (hover to see other rain measurements)
** Current wind speed in m/s (hover to see current wind gust speed)